createdAt,value
2023-02-06T00:01:44.439Z,91.60
2023-02-06T00:04:12.122Z,91.50
2023-02-06T00:06:39.449Z,91.50
2023-02-06T00:09:08.280Z,91.60
2023-02-06T00:11:36.092Z,91.60
2023-02-06T00:14:03.858Z,91.90
2023-02-06T00:16:34.214Z,91.70
2023-02-06T00:19:02.965Z,91.90
2023-02-06T00:21:31.169Z,92.10
2023-02-06T00:24:01.637Z,91.90
2023-02-06T00:26:30.151Z,92.10
2023-02-06T00:28:57.502Z,92.10
2023-02-06T00:31:24.861Z,92.10
2023-02-06T00:33:52.184Z,91.80
2023-02-06T00:36:19.435Z,91.90
2023-02-06T00:38:46.651Z,91.90
2023-02-06T00:41:22.335Z,92.00
2023-02-06T00:43:49.699Z,92.30
2023-02-06T00:46:17.009Z,92.50
2023-02-06T00:48:44.262Z,92.30
2023-02-06T00:51:11.549Z,92.70
2023-02-06T00:53:39.228Z,92.70
2023-02-06T00:56:06.811Z,92.20
2023-02-06T00:58:34.136Z,92.50
2023-02-06T01:01:01.340Z,92.30
2023-02-06T01:03:28.736Z,92.60
2023-02-06T01:05:55.945Z,92.50
2023-02-06T01:08:23.658Z,92.50
2023-02-06T01:10:50.867Z,92.30
2023-02-06T01:13:18.285Z,92.40
2023-02-06T01:15:45.599Z,92.60
2023-02-06T01:18:12.874Z,93.10
2023-02-06T01:20:40.955Z,93.10
2023-02-06T01:25:37.795Z,92.60
2023-02-06T01:28:05.460Z,92.80
2023-02-06T01:30:32.689Z,92.70
2023-02-06T01:32:59.964Z,92.80
2023-02-06T01:35:27.343Z,92.80
2023-02-06T01:37:54.512Z,92.70
2023-02-06T01:40:21.719Z,92.90
2023-02-06T01:42:48.957Z,93.00
2023-02-06T01:45:42.445Z,92.90
2023-02-06T01:48:17.520Z,93.10
2023-02-06T01:50:53.983Z,93.10
2023-02-06T01:53:22.661Z,93.10
2023-02-06T01:55:54.602Z,93.30
2023-02-06T01:58:38.644Z,93.40
2023-02-06T02:01:07.791Z,93.50
2023-02-06T02:03:42.439Z,93.60
2023-02-06T02:06:15.180Z,93.40
2023-02-06T02:08:47.751Z,93.10
2023-02-06T02:11:22.961Z,93.00
2023-02-06T02:13:53.649Z,92.80
2023-02-06T02:16:53.192Z,92.90
2023-02-06T02:20:16.490Z,92.90
2023-02-06T02:23:23.452Z,93.30
2023-02-06T02:26:12.382Z,93.20
2023-02-06T02:29:10.955Z,93.40
2023-02-06T02:32:16.329Z,93.40
2023-02-06T02:35:36.733Z,93.30
2023-02-06T02:38:24.413Z,93.20
2023-02-06T02:41:05.019Z,93.40
2023-02-06T02:44:08.973Z,93.30
2023-02-06T02:46:52.294Z,93.30
2023-02-06T02:49:29.782Z,93.20
2023-02-06T02:51:58.697Z,93.20
2023-02-06T02:54:26.277Z,92.80
2023-02-06T02:57:02.644Z,92.70
2023-02-06T02:59:38.110Z,93.00
2023-02-06T03:02:15.702Z,93.20
2023-02-06T03:05:02.573Z,93.10
2023-02-06T03:07:47.633Z,93.00
2023-02-06T03:10:25.258Z,93.10
2023-02-06T03:13:32.505Z,92.60
2023-02-06T03:16:18.551Z,93.30
2023-02-06T03:19:19.160Z,93.40
2023-02-06T03:21:49.772Z,93.50
2023-02-06T03:24:34.099Z,93.30
2023-02-06T03:27:10.470Z,93.50
2023-02-06T03:29:41.678Z,93.60
2023-02-06T03:32:19.377Z,93.40
2023-02-06T03:35:07.102Z,93.60
2023-02-06T03:37:37.369Z,93.50
2023-02-06T03:40:09.585Z,93.70
2023-02-06T03:42:45.592Z,93.80
2023-02-06T03:45:27.426Z,93.60
2023-02-06T03:48:03.004Z,93.70
2023-02-06T03:50:33.598Z,93.60
2023-02-06T03:53:04.539Z,93.90
2023-02-06T03:55:31.859Z,93.90
2023-02-06T03:58:09.089Z,93.90
2023-02-06T04:00:40.155Z,93.90
2023-02-06T04:03:10.525Z,93.90
2023-02-06T04:05:39.200Z,93.70
2023-02-06T04:08:07.294Z,93.70
2023-02-06T04:10:34.696Z,93.70
2023-02-06T04:13:01.929Z,93.70
2023-02-06T04:15:29.684Z,93.80
2023-02-06T04:18:01.536Z,93.90
2023-02-06T04:20:30.023Z,94.10
2023-02-06T04:22:58.720Z,94.10
2023-02-06T04:25:27.229Z,94.10
2023-02-06T04:27:55.173Z,94.10
2023-02-06T04:30:22.564Z,93.80
2023-02-06T04:32:50.108Z,93.60
2023-02-06T04:35:18.033Z,93.80
2023-02-06T04:37:45.319Z,94.00
2023-02-06T04:40:12.913Z,93.90
2023-02-06T04:42:40.216Z,94.40
2023-02-06T04:45:08.392Z,94.50
2023-02-06T04:47:35.599Z,94.50
2023-02-06T04:50:05.105Z,94.40
2023-02-06T04:52:32.540Z,94.20
2023-02-06T04:54:59.734Z,94.30
2023-02-06T04:57:27.004Z,94.30
2023-02-06T04:59:54.310Z,94.20
2023-02-06T05:02:21.663Z,94.30
2023-02-06T05:04:48.969Z,94.00
2023-02-06T05:07:16.295Z,93.60
2023-02-06T05:09:43.565Z,93.90
2023-02-06T05:12:13.919Z,94.10
2023-02-06T05:14:41.381Z,94.20
2023-02-06T05:17:08.509Z,94.40
2023-02-06T05:19:35.817Z,94.60
2023-02-06T05:22:03.128Z,94.60
2023-02-06T05:24:30.532Z,94.40
2023-02-06T05:26:57.948Z,94.30
2023-02-06T05:29:26.233Z,94.30
2023-02-06T05:31:53.654Z,94.40
2023-02-06T05:34:21.202Z,94.30
2023-02-06T05:36:48.482Z,94.20
2023-02-06T05:39:15.629Z,94.50
2023-02-06T05:41:42.740Z,99.90
2023-02-06T05:44:09.933Z,99.90
2023-02-06T05:46:37.807Z,99.90
2023-02-06T05:49:06.005Z,99.10
2023-02-06T05:51:34.255Z,99.30
2023-02-06T05:54:01.950Z,99.10
2023-02-06T05:56:29.491Z,98.80
2023-02-06T05:58:56.710Z,99.90
2023-02-06T06:06:19.589Z,95.10
2023-02-06T06:08:46.943Z,95.40
2023-02-06T06:11:14.852Z,95.30
2023-02-06T06:13:42.110Z,95.20
2023-02-06T06:16:09.417Z,94.90
2023-02-06T06:18:36.895Z,99.90
2023-02-06T06:21:04.291Z,97.70
2023-02-06T06:23:31.502Z,98.30
2023-02-06T06:25:58.789Z,99.90
2023-02-06T06:28:26.137Z,99.90
2023-02-06T06:31:06.228Z,99.90
2023-02-06T06:33:38.665Z,99.90
2023-02-06T06:36:08.542Z,99.90
2023-02-06T06:38:35.878Z,99.90
2023-02-06T06:41:08.295Z,99.90
2023-02-06T06:43:36.449Z,99.90
2023-02-06T06:46:04.151Z,99.90
2023-02-06T06:48:32.595Z,99.90
2023-02-06T06:51:00.131Z,99.90
2023-02-06T06:53:27.821Z,99.90
2023-02-06T06:55:55.116Z,99.90
2023-02-06T06:58:22.338Z,99.90
2023-02-06T07:00:49.697Z,99.90
2023-02-06T07:03:16.936Z,99.90
2023-02-06T07:05:44.269Z,99.90
2023-02-06T07:08:11.501Z,99.90
2023-02-06T07:10:38.701Z,99.90
2023-02-06T07:13:06.163Z,99.90
2023-02-06T07:15:33.566Z,99.90
2023-02-06T07:18:01.295Z,99.90
2023-02-06T07:20:28.798Z,99.90
2023-02-06T07:22:56.044Z,99.90
2023-02-06T07:25:23.399Z,99.90
2023-02-06T07:27:50.622Z,99.90
2023-02-06T07:30:17.995Z,99.90
2023-02-06T07:32:45.372Z,99.90
2023-02-06T07:35:12.610Z,99.90
2023-02-06T07:37:39.771Z,99.90
2023-02-06T07:40:07.728Z,99.90
2023-02-06T07:42:34.932Z,99.90
2023-02-06T07:45:02.146Z,99.90
2023-02-06T07:47:29.384Z,99.90
2023-02-06T07:49:56.682Z,99.90
2023-02-06T07:52:23.878Z,99.90
2023-02-06T07:54:51.115Z,99.90
2023-02-06T07:57:19.099Z,99.90
2023-02-06T07:59:46.338Z,99.90
2023-02-06T08:02:14.250Z,99.90
2023-02-06T08:04:41.652Z,99.90
2023-02-06T08:07:09.053Z,99.30
2023-02-06T08:09:36.564Z,99.30
2023-02-06T08:12:04.056Z,99.60
2023-02-06T08:14:31.624Z,99.70
2023-02-06T08:16:59.059Z,99.90
2023-02-06T08:19:26.905Z,99.90
2023-02-06T08:21:54.096Z,99.80
2023-02-06T08:24:21.332Z,99.90
2023-02-06T08:26:48.774Z,99.90
2023-02-06T08:29:16.384Z,99.90
2023-02-06T08:31:44.037Z,99.80
2023-02-06T08:34:14.934Z,99.60
2023-02-06T08:36:43.794Z,99.40
2023-02-06T08:39:14.806Z,99.40
2023-02-06T08:41:44.186Z,99.40
2023-02-06T08:44:18.148Z,98.80
2023-02-06T08:46:47.385Z,98.60
2023-02-06T08:49:21.408Z,98.40
2023-02-06T08:51:49.414Z,98.20
2023-02-06T08:54:21.435Z,98.20
2023-02-06T08:56:50.405Z,97.30
2023-02-06T08:59:19.983Z,96.60
2023-02-06T09:01:47.477Z,96.10
2023-02-06T09:04:16.115Z,95.20
2023-02-06T09:06:46.453Z,94.70
2023-02-06T09:09:13.912Z,94.70
2023-02-06T09:11:41.900Z,94.80
2023-02-06T09:14:15.298Z,94.90
2023-02-06T09:16:43.141Z,94.70
2023-02-06T09:19:12.016Z,94.70
2023-02-06T09:21:39.841Z,94.90
2023-02-06T09:24:09.382Z,95.10
2023-02-06T09:26:58.061Z,94.90
2023-02-06T09:29:31.337Z,94.50
2023-02-06T09:31:59.705Z,95.10
2023-02-06T09:34:28.312Z,94.20
2023-02-06T09:36:55.595Z,94.30
2023-02-06T09:39:23.652Z,94.50
2023-02-06T09:42:03.358Z,94.40
2023-02-06T09:44:40.921Z,94.10
2023-02-06T09:47:29.009Z,93.50
2023-02-06T09:50:05.978Z,94.40
2023-02-06T09:53:07.822Z,94.50
2023-02-06T09:56:09.485Z,94.00
2023-02-06T09:59:04.555Z,93.60
2023-02-06T10:01:40.551Z,93.50
2023-02-06T10:04:41.101Z,93.10
2023-02-06T10:07:55.566Z,93.60
2023-02-06T10:10:53.357Z,93.70
2023-02-06T10:13:35.552Z,93.10
2023-02-06T10:16:34.888Z,92.40
2023-02-06T10:19:29.659Z,92.80
2023-02-06T10:22:06.739Z,92.50
2023-02-06T10:25:04.065Z,92.40
2023-02-06T10:27:35.485Z,92.20
2023-02-06T10:30:03.871Z,92.60
2023-02-06T10:33:02.738Z,93.10
2023-02-06T10:35:48.241Z,93.00
2023-02-06T10:38:42.876Z,93.20
2023-02-06T10:41:32.680Z,93.60
2023-02-06T10:44:19.665Z,94.00
2023-02-06T10:46:54.909Z,93.70
2023-02-06T10:49:38.845Z,94.20
2023-02-06T10:52:35.172Z,93.80
2023-02-06T10:55:29.054Z,93.50
2023-02-06T10:58:25.380Z,93.30
2023-02-06T11:00:54.740Z,92.20
2023-02-06T11:03:29.430Z,90.80
2023-02-06T11:05:58.837Z,90.30
2023-02-06T11:08:41.936Z,90.40
2023-02-06T11:11:32.780Z,91.50
2023-02-06T11:14:14.416Z,91.80
2023-02-06T11:16:44.907Z,91.20
2023-02-06T11:19:24.241Z,90.80
2023-02-06T11:22:07.852Z,96.40
2023-02-06T11:24:37.286Z,99.90
2023-02-06T11:27:18.981Z,99.90
2023-02-06T11:29:52.059Z,99.90
2023-02-06T11:32:46.430Z,99.90
2023-02-06T11:35:47.362Z,99.90
2023-02-06T11:38:20.162Z,99.90
2023-02-06T11:41:17.747Z,99.90
2023-02-06T11:43:50.317Z,99.90
2023-02-06T11:46:25.147Z,99.90
2023-02-06T11:49:21.463Z,99.90
2023-02-06T11:52:00.659Z,99.90
2023-02-06T11:54:32.055Z,99.90
2023-02-06T11:57:08.115Z,99.90
2023-02-06T11:59:49.136Z,98.60
2023-02-06T12:02:32.197Z,97.00
2023-02-06T12:07:51.220Z,79.10
2023-02-06T12:10:23.158Z,76.10
2023-02-06T12:15:59.653Z,62.80
2023-02-06T12:21:28.325Z,57.50
2023-02-06T12:24:19.786Z,68.00
2023-02-06T12:26:50.061Z,52.50
2023-02-06T12:29:40.255Z,51.90
2023-02-06T12:32:19.045Z,51.30
2023-02-06T12:35:15.452Z,50.70
2023-02-06T12:38:03.190Z,50.40
2023-02-06T12:40:50.005Z,49.90
2023-02-06T12:43:19.638Z,50.40
2023-02-06T12:46:16.494Z,50.00
2023-02-06T12:49:31.453Z,50.80
2023-02-06T12:52:12.672Z,48.90
2023-02-06T12:55:00.849Z,47.80
2023-02-06T12:57:31.484Z,48.50
2023-02-06T13:00:33.468Z,49.40
2023-02-06T13:03:03.780Z,49.90
2023-02-06T13:05:45.131Z,47.50
2023-02-06T13:08:28.474Z,48.60
2023-02-06T13:11:22.353Z,48.60
2023-02-06T13:13:50.172Z,47.50
2023-02-06T13:16:17.612Z,47.70
2023-02-06T13:18:45.240Z,49.70
2023-02-06T13:21:27.790Z,51.20
2023-02-06T13:24:03.578Z,51.30
2023-02-06T13:26:46.280Z,53.60
2023-02-06T13:29:22.495Z,54.00
2023-02-06T13:31:49.918Z,54.60
2023-02-06T13:34:19.047Z,55.60
2023-02-06T13:36:51.670Z,55.70
2023-02-06T13:39:32.470Z,56.70
2023-02-06T13:42:33.130Z,55.60
2023-02-06T13:45:05.076Z,56.70
2023-02-06T13:48:13.865Z,55.00
2023-02-06T13:51:02.271Z,55.00
2023-02-06T13:54:06.205Z,55.30
2023-02-06T13:57:09.228Z,56.20
2023-02-06T14:00:02.517Z,56.40
2023-02-06T14:02:42.940Z,58.50
2023-02-06T14:05:19.715Z,58.80
2023-02-06T14:07:46.913Z,59.60
2023-02-06T14:10:20.254Z,59.70
2023-02-06T14:12:59.679Z,60.10
2023-02-06T14:16:08.308Z,62.80
2023-02-06T14:18:50.302Z,61.00
2023-02-06T14:21:48.028Z,63.40
2023-02-06T14:24:50.192Z,63.50
2023-02-06T14:27:40.142Z,64.50
2023-02-06T14:30:34.796Z,64.70
2023-02-06T14:33:51.656Z,65.10
2023-02-06T14:36:33.794Z,65.10
2023-02-06T14:39:45.988Z,68.00
2023-02-06T14:42:26.087Z,68.30
2023-02-06T14:45:03.783Z,66.70
2023-02-06T14:47:39.656Z,66.00
2023-02-06T14:50:17.762Z,64.50
2023-02-06T14:52:50.732Z,64.60
2023-02-06T14:55:43.937Z,63.80
2023-02-06T14:58:26.679Z,64.20
2023-02-06T15:00:56.873Z,64.10
2023-02-06T15:03:27.069Z,65.20
2023-02-06T15:06:11.152Z,64.70
2023-02-06T15:08:39.024Z,66.00
2023-02-06T15:11:23.129Z,66.50
2023-02-06T15:13:54.520Z,67.80
2023-02-06T15:16:23.208Z,65.90
2023-02-06T15:18:50.424Z,65.90
2023-02-06T15:21:21.513Z,67.50
2023-02-06T15:24:22.969Z,67.60
2023-02-06T15:27:38.846Z,68.40
2023-02-06T15:30:34.825Z,69.50
2023-02-06T15:33:02.694Z,69.50
2023-02-06T15:35:38.792Z,68.60
2023-02-06T15:38:16.622Z,68.30
2023-02-06T15:40:55.133Z,69.10
2023-02-06T15:43:25.556Z,68.00
2023-02-06T15:46:03.439Z,69.10
2023-02-06T15:48:43.421Z,71.20
2023-02-06T15:51:24.572Z,71.30
2023-02-06T15:54:08.633Z,71.20
2023-02-06T15:56:41.392Z,72.60
2023-02-06T15:59:20.564Z,73.60
2023-02-06T16:01:49.424Z,70.90
2023-02-06T16:04:29.408Z,70.30
2023-02-06T16:07:17.601Z,70.80
2023-02-06T16:10:00.932Z,70.00
2023-02-06T16:12:39.088Z,67.10
2023-02-06T16:15:25.592Z,67.50
2023-02-06T16:17:57.664Z,70.30
2023-02-06T16:20:40.659Z,69.60
2023-02-06T16:23:44.714Z,70.00
2023-02-06T16:26:28.697Z,70.80
2023-02-06T16:29:02.115Z,74.00
2023-02-06T16:31:32.239Z,75.50
2023-02-06T16:34:00.430Z,75.10
2023-02-06T16:36:27.704Z,75.60
2023-02-06T16:39:03.716Z,76.20
2023-02-06T16:41:37.783Z,76.40
2023-02-06T16:44:13.549Z,75.90
2023-02-06T16:46:41.513Z,76.50
2023-02-06T16:49:16.298Z,77.70
2023-02-06T16:51:46.711Z,77.40
2023-02-06T16:54:29.825Z,76.30
2023-02-06T16:57:30.317Z,76.80
2023-02-06T16:59:58.862Z,77.10
2023-02-06T17:02:28.174Z,76.00
2023-02-06T17:04:56.105Z,75.70
2023-02-06T17:07:27.629Z,75.80
2023-02-06T17:09:58.425Z,75.00
2023-02-06T17:12:25.758Z,76.00
2023-02-06T17:14:53.047Z,76.50
2023-02-06T17:17:23.183Z,76.00
2023-02-06T17:19:52.648Z,76.40
2023-02-06T17:22:20.544Z,77.10
2023-02-06T17:24:47.948Z,77.40
2023-02-06T17:27:20.643Z,77.30
2023-02-06T17:29:49.494Z,78.10
2023-02-06T17:32:17.118Z,79.40
2023-02-06T17:34:44.486Z,78.50
2023-02-06T17:37:13.721Z,78.20
2023-02-06T17:39:41.056Z,78.70
2023-02-06T17:42:08.197Z,79.70
2023-02-06T17:44:35.543Z,80.50
2023-02-06T17:47:02.731Z,80.20
2023-02-06T17:49:30.015Z,79.90
2023-02-06T17:51:57.405Z,80.00
2023-02-06T17:54:24.586Z,80.20
2023-02-06T17:56:51.888Z,80.70
2023-02-06T17:59:19.202Z,79.60
2023-02-06T18:01:46.495Z,79.80
2023-02-06T18:04:14.356Z,81.00
2023-02-06T18:06:41.814Z,82.00
2023-02-06T18:09:09.042Z,81.00
2023-02-06T18:11:37.645Z,80.00
2023-02-06T18:14:05.084Z,79.80
2023-02-06T18:16:32.582Z,80.30
2023-02-06T18:19:00.235Z,80.20
2023-02-06T18:21:27.766Z,80.40
2023-02-06T18:23:55.609Z,81.70
2023-02-06T18:26:24.514Z,82.50
2023-02-06T18:28:51.929Z,81.60
2023-02-06T18:31:52.292Z,81.90
2023-02-06T18:34:20.562Z,81.70
2023-02-06T18:36:49.090Z,84.00
2023-02-06T18:39:21.102Z,84.60
2023-02-06T18:41:48.552Z,84.20
2023-02-06T18:44:16.070Z,84.70
2023-02-06T18:46:43.746Z,84.40
2023-02-06T18:49:11.004Z,84.50
2023-02-06T18:51:38.888Z,87.00
2023-02-06T18:54:06.152Z,85.20
2023-02-06T18:56:34.815Z,86.70
2023-02-06T18:59:02.460Z,85.50
2023-02-06T19:01:30.514Z,85.70
2023-02-06T19:03:59.616Z,85.10
2023-02-06T19:06:30.913Z,85.10
2023-02-06T19:08:59.575Z,83.40
2023-02-06T19:11:27.703Z,83.80
2023-02-06T19:13:55.510Z,84.60
2023-02-06T19:16:23.262Z,86.00
2023-02-06T19:18:50.918Z,86.80
2023-02-06T19:21:21.525Z,87.10
2023-02-06T19:23:58.451Z,86.70
2023-02-06T19:26:27.509Z,86.40
2023-02-06T19:28:55.247Z,86.50
2023-02-06T19:31:23.380Z,86.50
2023-02-06T19:33:56.911Z,85.40
2023-02-06T19:36:27.028Z,86.00
2023-02-06T19:39:01.208Z,87.20
2023-02-06T19:41:33.310Z,87.10
2023-02-06T19:44:12.538Z,87.10
2023-02-06T19:46:40.420Z,87.80
2023-02-06T19:49:08.019Z,88.10
2023-02-06T19:51:40.402Z,87.10
2023-02-06T19:54:08.461Z,87.90
2023-02-06T19:56:41.400Z,87.60
2023-02-06T19:59:20.565Z,88.20
2023-02-06T20:01:55.440Z,88.50
2023-02-06T20:04:32.197Z,89.60
2023-02-06T20:06:59.924Z,89.20
2023-02-06T20:09:28.076Z,88.50
2023-02-06T20:11:57.076Z,88.70
2023-02-06T20:14:25.951Z,88.70
2023-02-06T20:16:55.775Z,89.10
2023-02-06T20:19:27.957Z,88.80
2023-02-06T20:21:59.437Z,89.40
2023-02-06T20:24:32.444Z,89.40
2023-02-06T20:27:05.603Z,90.00
2023-02-06T20:29:38.594Z,90.00
2023-02-06T20:32:07.380Z,90.10
2023-02-06T20:34:35.972Z,90.40
2023-02-06T20:37:04.261Z,90.50
2023-02-06T20:39:32.119Z,90.30
2023-02-06T20:41:59.519Z,90.40
2023-02-06T20:44:29.634Z,90.50
2023-02-06T20:46:57.320Z,90.20
2023-02-06T20:49:27.709Z,89.50
2023-02-06T20:51:55.545Z,90.30
2023-02-06T20:54:23.851Z,90.00
2023-02-06T20:56:51.357Z,90.30
2023-02-06T20:59:20.683Z,90.30
2023-02-06T21:01:48.593Z,90.40
2023-02-06T21:04:17.417Z,90.40
2023-02-06T21:06:45.754Z,90.20
2023-02-06T21:09:13.557Z,90.10
2023-02-06T21:11:45.295Z,90.00
2023-02-06T21:14:14.473Z,90.30
2023-02-06T21:16:42.207Z,90.40
2023-02-06T21:19:12.573Z,90.60
2023-02-06T21:21:40.847Z,90.70
2023-02-06T21:24:09.516Z,90.30
2023-02-06T21:26:37.486Z,90.60
2023-02-06T21:29:06.268Z,90.70
2023-02-06T21:31:38.195Z,90.60
2023-02-06T21:34:18.190Z,90.70
2023-02-06T21:36:46.351Z,91.00
2023-02-06T21:39:21.719Z,91.30
2023-02-06T21:41:50.100Z,91.70
2023-02-06T21:44:17.652Z,91.80
2023-02-06T21:46:44.936Z,91.60
2023-02-06T21:49:13.175Z,92.10
2023-02-06T21:51:40.520Z,92.20
2023-02-06T21:54:08.956Z,92.40
2023-02-06T21:56:38.094Z,92.40
2023-02-06T21:59:06.975Z,92.40
2023-02-06T22:01:35.740Z,92.30
2023-02-06T22:04:04.188Z,92.70
2023-02-06T22:06:32.568Z,92.60
2023-02-06T22:08:59.753Z,92.60
2023-02-06T22:11:29.744Z,92.70
2023-02-06T22:14:06.618Z,92.60
2023-02-06T22:16:34.972Z,92.50
2023-02-06T22:19:02.763Z,92.60
2023-02-06T22:21:32.426Z,92.40
2023-02-06T22:24:04.587Z,92.50
2023-02-06T22:26:33.681Z,92.50
2023-02-06T22:29:01.402Z,92.60
2023-02-06T22:31:34.016Z,93.00
2023-02-06T22:34:03.247Z,92.80
2023-02-06T22:36:33.457Z,92.80
2023-02-06T22:39:06.199Z,93.00
2023-02-06T22:41:37.883Z,93.00
2023-02-06T22:44:05.488Z,92.90
2023-02-06T22:46:37.160Z,93.30
2023-02-06T22:49:09.331Z,92.90
2023-02-06T22:51:38.446Z,93.40
2023-02-06T22:54:07.383Z,92.80
2023-02-06T22:56:36.962Z,92.50
2023-02-06T22:59:23.249Z,92.70
2023-02-06T23:01:57.802Z,92.90
2023-02-06T23:04:31.301Z,93.90
2023-02-06T23:06:58.487Z,94.20
2023-02-06T23:09:30.205Z,94.60
2023-02-06T23:11:58.795Z,94.60
2023-02-06T23:14:27.866Z,94.30
2023-02-06T23:16:55.698Z,94.40
2023-02-06T23:19:23.607Z,94.70
2023-02-06T23:26:50.811Z,98.80
2023-02-06T23:29:20.419Z,99.90
2023-02-06T23:31:48.791Z,97.10
2023-02-06T23:34:18.043Z,97.30
2023-02-06T23:36:47.589Z,97.10
2023-02-06T23:39:15.245Z,97.50
2023-02-06T23:41:42.745Z,97.60
2023-02-06T23:44:11.604Z,97.60
2023-02-06T23:46:40.369Z,97.30
2023-02-06T23:49:08.769Z,97.20
2023-02-06T23:51:37.508Z,97.10
2023-02-06T23:54:07.301Z,96.80
2023-02-06T23:56:35.744Z,96.90
2023-02-06T23:59:06.031Z,97.30
